PACD 260554Z 2606/2706 16028G38KT 6SM BR BKN007
FM261300 17015KT P6SM VCSH OVC015
From batch tds/tafs/production/2023/3/26/h06_m00_tafs.cache.xml
Issued (11 months ago)
Forecasts
2606/2613 16028G38KT 6.0SM BKN700

---
wx_string: BR
fcst_time_to: '2023-03-26T13:00:00Z'
wind_gust_kt: '38'
sky_condition:
- sky_cover: BKN
  cloud_base_ft_agl: '700'
wind_speed_kt: '28'
fcst_time_from: '2023-03-26T06:00:00Z'
wind_dir_degrees: '160'
visibility_statute_mi: '6.0'

FM261300 17015KT P6SM OVC1500

---
wx_string: VCSH
fcst_time_to: '2023-03-27T06:00:00Z'
sky_condition:
- sky_cover: OVC
  cloud_base_ft_agl: '1500'
wind_speed_kt: '15'
fcst_time_from: '2023-03-26T13:00:00Z'
change_indicator: FM
wind_dir_degrees: '170'
visibility_statute_mi: '6.21'

talk